sensor_id;sensor_type;location;lat;lon;timestamp;P1;durP1;ratioP1;P2;durP2;ratioP2
11572;SDS011;5842;52.426;4.886;2022-11-15T00:00:44;56.77;;;30.13;;
11572;SDS011;5842;52.426;4.886;2022-11-15T00:03:13;62.47;;;31.67;;
11572;SDS011;5842;52.426;4.886;2022-11-15T00:05:40;60.83;;;30.97;;
11572;SDS011;5842;52.426;4.886;2022-11-15T00:08:09;65.03;;;32.10;;
11572;SDS011;5842;52.426;4.886;2022-11-15T00:10:37;70.27;;;32.30;;
11572;SDS011;5842;52.426;4.886;2022-11-15T00:13:04;54.53;;;29.87;;
11572;SDS011;5842;52.426;4.886;2022-11-15T00:15:34;67.47;;;32.07;;
11572;SDS011;5842;52.426;4.886;2022-11-15T00:18:02;66.47;;;32.57;;
11572;SDS011;5842;52.426;4.886;2022-11-15T00:20:31;67.47;;;32.40;;
11572;SDS011;5842;52.426;4.886;2022-11-15T00:23:00;71.73;;;34.33;;
11572;SDS011;5842;52.426;4.886;2022-11-15T00:25:30;71.97;;;34.83;;
11572;SDS011;5842;52.426;4.886;2022-11-15T00:27:58;71.20;;;34.47;;
11572;SDS011;5842;52.426;4.886;2022-11-15T00:30:26;74.03;;;33.70;;
11572;SDS011;5842;52.426;4.886;2022-11-15T00:32:54;67.53;;;33.83;;
11572;SDS011;5842;52.426;4.886;2022-11-15T00:35:22;76.23;;;33.33;;
11572;SDS011;5842;52.426;4.886;2022-11-15T00:37:49;71.07;;;33.20;;
11572;SDS011;5842;52.426;4.886;2022-11-15T00:40:18;75.97;;;34.27;;
11572;SDS011;5842;52.426;4.886;2022-11-15T00:42:47;68.10;;;32.57;;
11572;SDS011;5842;52.426;4.886;2022-11-15T00:45:14;74.40;;;33.87;;
11572;SDS011;5842;52.426;4.886;2022-11-15T00:47:43;70.00;;;34.47;;
11572;SDS011;5842;52.426;4.886;2022-11-15T00:50:13;72.93;;;34.37;;
11572;SDS011;5842;52.426;4.886;2022-11-15T00:52:40;73.50;;;34.40;;
11572;SDS011;5842;52.426;4.886;2022-11-15T00:55:08;66.67;;;32.60;;
11572;SDS011;5842;52.426;4.886;2022-11-15T00:57:39;73.33;;;33.40;;
11572;SDS011;5842;52.426;4.886;2022-11-15T01:00:08;72.47;;;32.50;;
11572;SDS011;5842;52.426;4.886;2022-11-15T01:02:36;66.47;;;33.07;;
11572;SDS011;5842;52.426;4.886;2022-11-15T01:05:04;66.93;;;32.50;;
11572;SDS011;5842;52.426;4.886;2022-11-15T01:07:32;73.90;;;33.53;;
11572;SDS011;5842;52.426;4.886;2022-11-15T01:09:59;68.33;;;32.83;;
11572;SDS011;5842;52.426;4.886;2022-11-15T01:12:27;72.07;;;33.57;;
11572;SDS011;5842;52.426;4.886;2022-11-15T01:14:54;74.30;;;32.57;;
11572;SDS011;5842;52.426;4.886;2022-11-15T01:17:23;70.40;;;32.27;;
11572;SDS011;5842;52.426;4.886;2022-11-15T01:19:50;70.47;;;33.00;;
11572;SDS011;5842;52.426;4.886;2022-11-15T01:22:17;73.00;;;32.83;;
11572;SDS011;5842;52.426;4.886;2022-11-15T01:24:44;73.90;;;33.07;;
11572;SDS011;5842;52.426;4.886;2022-11-15T01:27:12;73.93;;;32.17;;
11572;SDS011;5842;52.426;4.886;2022-11-15T01:29:39;69.80;;;32.27;;
11572;SDS011;5842;52.426;4.886;2022-11-15T01:32:06;68.53;;;32.27;;
11572;SDS011;5842;52.426;4.886;2022-11-15T01:34:35;69.63;;;31.63;;
11572;SDS011;5842;52.426;4.886;2022-11-15T01:37:02;67.57;;;31.60;;
11572;SDS011;5842;52.426;4.886;2022-11-15T01:39:29;72.40;;;32.13;;
11572;SDS011;5842;52.426;4.886;2022-11-15T01:41:56;74.37;;;32.37;;
11572;SDS011;5842;52.426;4.886;2022-11-15T01:44:40;72.37;;;32.60;;
11572;SDS011;5842;52.426;4.886;2022-11-15T01:47:10;69.80;;;31.33;;
11572;SDS011;5842;52.426;4.886;2022-11-15T01:49:48;78.53;;;33.20;;
11572;SDS011;5842;52.426;4.886;2022-11-15T01:52:20;73.10;;;32.37;;
11572;SDS011;5842;52.426;4.886;2022-11-15T01:54:50;77.37;;;32.77;;
11572;SDS011;5842;52.426;4.886;2022-11-15T01:57:22;72.43;;;33.13;;
11572;SDS011;5842;52.426;4.886;2022-11-15T01:59:50;78.00;;;32.30;;
11572;SDS011;5842;52.426;4.886;2022-11-15T02:02:17;72.40;;;32.73;;
11572;SDS011;5842;52.426;4.886;2022-11-15T02:04:45;72.00;;;31.33;;
11572;SDS011;5842;52.426;4.886;2022-11-15T02:07:15;75.50;;;32.27;;
11572;SDS011;5842;52.426;4.886;2022-11-15T02:09:44;73.93;;;33.43;;
11572;SDS011;5842;52.426;4.886;2022-11-15T02:12:13;79.40;;;32.53;;
11572;SDS011;5842;52.426;4.886;2022-11-15T02:14:44;79.93;;;33.37;;
11572;SDS011;5842;52.426;4.886;2022-11-15T02:17:18;75.07;;;31.60;;
11572;SDS011;5842;52.426;4.886;2022-11-15T02:23:31;77.90;;;32.13;;
11572;SDS011;5842;52.426;4.886;2022-11-15T02:26:38;77.50;;;32.50;;
11572;SDS011;5842;52.426;4.886;2022-11-15T02:29:21;74.57;;;32.87;;
11572;SDS011;5842;52.426;4.886;2022-11-15T02:32:03;80.20;;;33.17;;
11572;SDS011;5842;52.426;4.886;2022-11-15T02:34:38;80.97;;;34.07;;
11572;SDS011;5842;52.426;4.886;2022-11-15T02:37:17;78.23;;;34.47;;
11572;SDS011;5842;52.426;4.886;2022-11-15T02:39:54;77.60;;;32.90;;
11572;SDS011;5842;52.426;4.886;2022-11-15T02:42:30;85.00;;;35.80;;
11572;SDS011;5842;52.426;4.886;2022-11-15T02:45:21;91.67;;;37.43;;
11572;SDS011;5842;52.426;4.886;2022-11-15T02:47:57;81.20;;;35.73;;
11572;SDS011;5842;52.426;4.886;2022-11-15T02:50:28;92.70;;;36.70;;
11572;SDS011;5842;52.426;4.886;2022-11-15T02:52:57;86.63;;;35.13;;
11572;SDS011;5842;52.426;4.886;2022-11-15T02:55:25;88.73;;;36.37;;
11572;SDS011;5842;52.426;4.886;2022-11-15T02:57:56;88.83;;;36.93;;
11572;SDS011;5842;52.426;4.886;2022-11-15T03:00:34;94.17;;;37.93;;
11572;SDS011;5842;52.426;4.886;2022-11-15T03:03:19;93.60;;;37.37;;
11572;SDS011;5842;52.426;4.886;2022-11-15T03:06:03;97.03;;;39.03;;
11572;SDS011;5842;52.426;4.886;2022-11-15T03:08:39;88.50;;;38.03;;
11572;SDS011;5842;52.426;4.886;2022-11-15T03:11:16;91.93;;;38.53;;
11572;SDS011;5842;52.426;4.886;2022-11-15T03:13:46;98.77;;;38.63;;
11572;SDS011;5842;52.426;4.886;2022-11-15T03:16:20;95.43;;;37.03;;
11572;SDS011;5842;52.426;4.886;2022-11-15T03:18:57;90.47;;;39.33;;
11572;SDS011;5842;52.426;4.886;2022-11-15T03:21:28;94.97;;;40.10;;
11572;SDS011;5842;52.426;4.886;2022-11-15T03:23:57;97.67;;;39.43;;
11572;SDS011;5842;52.426;4.886;2022-11-15T03:26:27;97.57;;;38.97;;
11572;SDS011;5842;52.426;4.886;2022-11-15T03:28:57;93.10;;;38.93;;
11572;SDS011;5842;52.426;4.886;2022-11-15T03:31:30;96.67;;;38.40;;
11572;SDS011;5842;52.426;4.886;2022-11-15T03:34:17;94.97;;;39.40;;
11572;SDS011;5842;52.426;4.886;2022-11-15T03:36:52;90.57;;;38.33;;
11572;SDS011;5842;52.426;4.886;2022-11-15T03:39:19;88.00;;;38.00;;
11572;SDS011;5842;52.426;4.886;2022-11-15T03:41:48;95.77;;;38.07;;
11572;SDS011;5842;52.426;4.886;2022-11-15T03:44:26;97.20;;;39.67;;
11572;SDS011;5842;52.426;4.886;2022-11-15T03:47:03;98.40;;;40.30;;
11572;SDS011;5842;52.426;4.886;2022-11-15T03:49:36;90.93;;;38.83;;
11572;SDS011;5842;52.426;4.886;2022-11-15T03:52:07;92.37;;;38.83;;
11572;SDS011;5842;52.426;4.886;2022-11-15T03:54:36;104.30;;;40.53;;
11572;SDS011;5842;52.426;4.886;2022-11-15T03:57:03;99.20;;;40.13;;
11572;SDS011;5842;52.426;4.886;2022-11-15T03:59:30;103.33;;;41.30;;
11572;SDS011;5842;52.426;4.886;2022-11-15T04:01:57;87.57;;;39.50;;
11572;SDS011;5842;52.426;4.886;2022-11-15T04:04:24;98.17;;;40.03;;
11572;SDS011;5842;52.426;4.886;2022-11-15T04:06:53;97.40;;;40.40;;
11572;SDS011;5842;52.426;4.886;2022-11-15T04:09:21;102.33;;;42.07;;
11572;SDS011;5842;52.426;4.886;2022-11-15T04:11:48;105.27;;;41.13;;
11572;SDS011;5842;52.426;4.886;2022-11-15T04:14:15;98.90;;;40.40;;
11572;SDS011;5842;52.426;4.886;2022-11-15T04:16:42;95.63;;;40.63;;
11572;SDS011;5842;52.426;4.886;2022-11-15T04:19:09;101.83;;;41.03;;
11572;SDS011;5842;52.426;4.886;2022-11-15T04:21:55;90.87;;;40.23;;
11572;SDS011;5842;52.426;4.886;2022-11-15T04:24:39;85.83;;;38.33;;
11572;SDS011;5842;52.426;4.886;2022-11-15T04:27:06;91.57;;;39.43;;
11572;SDS011;5842;52.426;4.886;2022-11-15T04:29:34;96.97;;;41.30;;
11572;SDS011;5842;52.426;4.886;2022-11-15T04:32:01;96.03;;;38.97;;
11572;SDS011;5842;52.426;4.886;2022-11-15T04:34:29;92.80;;;39.93;;
11572;SDS011;5842;52.426;4.886;2022-11-15T04:36:57;89.23;;;39.83;;
11572;SDS011;5842;52.426;4.886;2022-11-15T04:39:39;93.60;;;40.23;;
11572;SDS011;5842;52.426;4.886;2022-11-15T04:42:06;84.03;;;38.67;;
11572;SDS011;5842;52.426;4.886;2022-11-15T04:44:33;82.27;;;38.53;;
11572;SDS011;5842;52.426;4.886;2022-11-15T04:47:01;81.10;;;39.37;;
11572;SDS011;5842;52.426;4.886;2022-11-15T04:49:29;84.30;;;39.13;;
11572;SDS011;5842;52.426;4.886;2022-11-15T04:51:57;77.50;;;36.83;;
11572;SDS011;5842;52.426;4.886;2022-11-15T04:54:28;76.50;;;36.23;;
11572;SDS011;5842;52.426;4.886;2022-11-15T04:56:55;80.57;;;38.10;;
11572;SDS011;5842;52.426;4.886;2022-11-15T04:59:22;72.37;;;36.20;;
11572;SDS011;5842;52.426;4.886;2022-11-15T05:01:49;69.47;;;35.90;;
11572;SDS011;5842;52.426;4.886;2022-11-15T05:04:16;69.20;;;37.60;;
11572;SDS011;5842;52.426;4.886;2022-11-15T05:06:45;75.57;;;38.13;;
11572;SDS011;5842;52.426;4.886;2022-11-15T05:09:18;73.37;;;36.43;;
11572;SDS011;5842;52.426;4.886;2022-11-15T05:11:46;76.30;;;36.73;;
11572;SDS011;5842;52.426;4.886;2022-11-15T05:14:14;73.50;;;37.63;;
11572;SDS011;5842;52.426;4.886;2022-11-15T05:16:41;65.70;;;35.40;;
11572;SDS011;5842;52.426;4.886;2022-11-15T05:19:09;67.57;;;33.93;;
11572;SDS011;5842;52.426;4.886;2022-11-15T05:21:36;72.33;;;36.70;;
11572;SDS011;5842;52.426;4.886;2022-11-15T05:24:03;70.53;;;35.53;;
11572;SDS011;5842;52.426;4.886;2022-11-15T05:26:33;63.43;;;33.27;;
11572;SDS011;5842;52.426;4.886;2022-11-15T05:29:00;68.60;;;33.47;;
11572;SDS011;5842;52.426;4.886;2022-11-15T05:31:27;63.77;;;33.27;;
11572;SDS011;5842;52.426;4.886;2022-11-15T05:33:54;66.17;;;33.87;;
11572;SDS011;5842;52.426;4.886;2022-11-15T05:36:25;62.23;;;32.30;;
11572;SDS011;5842;52.426;4.886;2022-11-15T05:38:57;58.87;;;31.47;;
11572;SDS011;5842;52.426;4.886;2022-11-15T05:41:25;58.93;;;32.60;;
11572;SDS011;5842;52.426;4.886;2022-11-15T05:43:59;59.07;;;32.37;;
11572;SDS011;5842;52.426;4.886;2022-11-15T05:46:27;56.03;;;32.00;;
11572;SDS011;5842;52.426;4.886;2022-11-15T05:48:55;57.77;;;31.47;;
11572;SDS011;5842;52.426;4.886;2022-11-15T05:51:24;58.60;;;32.53;;
11572;SDS011;5842;52.426;4.886;2022-11-15T05:53:53;54.43;;;32.27;;
11572;SDS011;5842;52.426;4.886;2022-11-15T05:56:23;54.10;;;29.60;;
11572;SDS011;5842;52.426;4.886;2022-11-15T05:58:51;58.40;;;30.60;;
11572;SDS011;5842;52.426;4.886;2022-11-15T06:01:21;53.37;;;30.53;;
11572;SDS011;5842;52.426;4.886;2022-11-15T06:03:48;54.43;;;31.10;;
11572;SDS011;5842;52.426;4.886;2022-11-15T06:06:15;54.53;;;29.67;;
11572;SDS011;5842;52.426;4.886;2022-11-15T06:08:42;48.13;;;28.63;;
11572;SDS011;5842;52.426;4.886;2022-11-15T06:11:09;53.17;;;30.53;;
11572;SDS011;5842;52.426;4.886;2022-11-15T06:13:36;54.20;;;28.67;;
11572;SDS011;5842;52.426;4.886;2022-11-15T06:16:03;51.63;;;28.53;;
11572;SDS011;5842;52.426;4.886;2022-11-15T06:18:33;51.97;;;28.80;;
11572;SDS011;5842;52.426;4.886;2022-11-15T06:21:01;43.60;;;26.43;;
11572;SDS011;5842;52.426;4.886;2022-11-15T06:23:28;47.40;;;28.03;;
11572;SDS011;5842;52.426;4.886;2022-11-15T06:25:59;45.87;;;27.20;;
11572;SDS011;5842;52.426;4.886;2022-11-15T06:28:27;46.20;;;26.13;;
11572;SDS011;5842;52.426;4.886;2022-11-15T06:30:55;45.67;;;27.37;;
11572;SDS011;5842;52.426;4.886;2022-11-15T06:33:22;45.07;;;26.27;;
11572;SDS011;5842;52.426;4.886;2022-11-15T06:35:51;40.73;;;25.63;;
11572;SDS011;5842;52.426;4.886;2022-11-15T06:38:18;42.47;;;25.10;;
11572;SDS011;5842;52.426;4.886;2022-11-15T06:40:45;40.37;;;25.47;;
11572;SDS011;5842;52.426;4.886;2022-11-15T06:43:13;45.13;;;26.67;;
11572;SDS011;5842;52.426;4.886;2022-11-15T06:45:40;46.50;;;26.83;;
11572;SDS011;5842;52.426;4.886;2022-11-15T06:48:07;47.93;;;27.67;;
11572;SDS011;5842;52.426;4.886;2022-11-15T06:50:34;41.47;;;25.33;;
11572;SDS011;5842;52.426;4.886;2022-11-15T06:53:03;44.93;;;27.10;;
11572;SDS011;5842;52.426;4.886;2022-11-15T06:55:30;42.13;;;25.50;;
11572;SDS011;5842;52.426;4.886;2022-11-15T06:57:57;45.83;;;25.50;;
11572;SDS011;5842;52.426;4.886;2022-11-15T07:00:24;46.43;;;26.93;;
11572;SDS011;5842;52.426;4.886;2022-11-15T07:02:51;45.07;;;28.27;;
11572;SDS011;5842;52.426;4.886;2022-11-15T07:05:19;48.03;;;27.27;;
11572;SDS011;5842;52.426;4.886;2022-11-15T07:07:51;46.40;;;27.00;;
11572;SDS011;5842;52.426;4.886;2022-11-15T07:10:21;48.67;;;27.43;;
11572;SDS011;5842;52.426;4.886;2022-11-15T07:12:49;48.20;;;27.80;;
11572;SDS011;5842;52.426;4.886;2022-11-15T07:15:17;44.97;;;26.53;;
11572;SDS011;5842;52.426;4.886;2022-11-15T07:17:45;48.60;;;26.13;;
11572;SDS011;5842;52.426;4.886;2022-11-15T07:20:13;43.33;;;25.97;;
11572;SDS011;5842;52.426;4.886;2022-11-15T07:38:35;43.07;;;25.10;;
11572;SDS011;5842;52.426;4.886;2022-11-15T07:41:04;43.10;;;24.97;;
11572;SDS011;5842;52.426;4.886;2022-11-15T07:43:32;43.23;;;25.07;;
11572;SDS011;5842;52.426;4.886;2022-11-15T07:46:03;44.00;;;25.77;;
11572;SDS011;5842;52.426;4.886;2022-11-15T07:48:32;44.90;;;25.43;;
11572;SDS011;5842;52.426;4.886;2022-11-15T07:50:59;44.77;;;24.60;;
11572;SDS011;5842;52.426;4.886;2022-11-15T07:53:26;43.70;;;25.07;;
11572;SDS011;5842;52.426;4.886;2022-11-15T07:55:55;39.80;;;23.90;;
11572;SDS011;5842;52.426;4.886;2022-11-15T07:58:22;43.77;;;23.90;;
11572;SDS011;5842;52.426;4.886;2022-11-15T08:00:49;37.97;;;22.03;;
11572;SDS011;5842;52.426;4.886;2022-11-15T08:03:16;37.70;;;22.40;;
11572;SDS011;5842;52.426;4.886;2022-11-15T08:05:49;39.80;;;23.13;;
11572;SDS011;5842;52.426;4.886;2022-11-15T08:08:17;32.87;;;20.87;;
11572;SDS011;5842;52.426;4.886;2022-11-15T08:10:45;40.23;;;21.10;;
11572;SDS011;5842;52.426;4.886;2022-11-15T08:13:13;37.80;;;21.40;;
11572;SDS011;5842;52.426;4.886;2022-11-15T08:15:41;35.83;;;20.77;;
11572;SDS011;5842;52.426;4.886;2022-11-15T08:18:10;38.00;;;20.93;;
11572;SDS011;5842;52.426;4.886;2022-11-15T08:20:41;31.67;;;20.03;;
11572;SDS011;5842;52.426;4.886;2022-11-15T08:23:10;35.87;;;20.30;;
11572;SDS011;5842;52.426;4.886;2022-11-15T08:25:38;33.27;;;19.73;;
11572;SDS011;5842;52.426;4.886;2022-11-15T08:28:05;33.43;;;17.90;;
11572;SDS011;5842;52.426;4.886;2022-11-15T08:30:36;28.30;;;17.30;;
11572;SDS011;5842;52.426;4.886;2022-11-15T08:33:09;23.47;;;14.90;;
11572;SDS011;5842;52.426;4.886;2022-11-15T08:35:37;20.77;;;13.60;;
11572;SDS011;5842;52.426;4.886;2022-11-15T08:38:05;20.97;;;13.83;;
11572;SDS011;5842;52.426;4.886;2022-11-15T08:40:32;21.83;;;13.63;;
11572;SDS011;5842;52.426;4.886;2022-11-15T08:43:08;21.03;;;14.23;;
11572;SDS011;5842;52.426;4.886;2022-11-15T08:45:37;20.90;;;13.73;;
11572;SDS011;5842;52.426;4.886;2022-11-15T08:48:04;22.27;;;14.47;;
11572;SDS011;5842;52.426;4.886;2022-11-15T08:50:31;23.83;;;15.43;;
11572;SDS011;5842;52.426;4.886;2022-11-15T08:53:03;22.23;;;14.90;;
11572;SDS011;5842;52.426;4.886;2022-11-15T08:55:31;20.10;;;13.63;;
11572;SDS011;5842;52.426;4.886;2022-11-15T08:58:01;19.20;;;13.17;;
11572;SDS011;5842;52.426;4.886;2022-11-15T09:00:30;22.67;;;13.27;;
11572;SDS011;5842;52.426;4.886;2022-11-15T09:02:58;19.40;;;12.60;;
11572;SDS011;5842;52.426;4.886;2022-11-15T09:05:25;16.90;;;12.37;;
11572;SDS011;5842;52.426;4.886;2022-11-15T09:07:52;20.83;;;13.30;;
11572;SDS011;5842;52.426;4.886;2022-11-15T09:10:20;18.00;;;12.50;;
11572;SDS011;5842;52.426;4.886;2022-11-15T09:12:47;19.40;;;12.73;;
11572;SDS011;5842;52.426;4.886;2022-11-15T09:15:14;16.33;;;11.10;;
11572;SDS011;5842;52.426;4.886;2022-11-15T09:17:42;18.13;;;12.20;;
11572;SDS011;5842;52.426;4.886;2022-11-15T09:20:10;16.97;;;11.67;;
11572;SDS011;5842;52.426;4.886;2022-11-15T09:22:37;18.00;;;11.43;;
11572;SDS011;5842;52.426;4.886;2022-11-15T09:25:05;17.00;;;10.90;;
11572;SDS011;5842;52.426;4.886;2022-11-15T09:27:32;15.87;;;10.57;;
11572;SDS011;5842;52.426;4.886;2022-11-15T09:29:59;13.53;;;10.03;;
11572;SDS011;5842;52.426;4.886;2022-11-15T09:32:27;13.13;;;9.53;;
11572;SDS011;5842;52.426;4.886;2022-11-15T09:34:55;15.13;;;10.20;;
11572;SDS011;5842;52.426;4.886;2022-11-15T09:37:23;17.27;;;10.30;;
11572;SDS011;5842;52.426;4.886;2022-11-15T09:39:50;14.23;;;8.70;;
11572;SDS011;5842;52.426;4.886;2022-11-15T09:42:34;12.73;;;8.83;;
11572;SDS011;5842;52.426;4.886;2022-11-15T09:45:20;13.40;;;8.90;;
11572;SDS011;5842;52.426;4.886;2022-11-15T09:50:47;15.30;;;8.73;;
11572;SDS011;5842;52.426;4.886;2022-11-15T09:53:24;10.37;;;8.23;;
11572;SDS011;5842;52.426;4.886;2022-11-15T09:55:55;10.30;;;7.87;;
11572;SDS011;5842;52.426;4.886;2022-11-15T09:58:28;12.73;;;8.63;;
11572;SDS011;5842;52.426;4.886;2022-11-15T10:01:02;12.40;;;8.27;;
11572;SDS011;5842;52.426;4.886;2022-11-15T10:03:34;12.97;;;8.93;;
11572;SDS011;5842;52.426;4.886;2022-11-15T10:06:04;13.20;;;8.60;;
11572;SDS011;5842;52.426;4.886;2022-11-15T10:08:50;11.37;;;8.60;;
11572;SDS011;5842;52.426;4.886;2022-11-15T10:11:23;13.27;;;8.97;;
11572;SDS011;5842;52.426;4.886;2022-11-15T10:13:53;9.90;;;8.40;;
11572;SDS011;5842;52.426;4.886;2022-11-15T10:19:23;14.27;;;8.30;;
11572;SDS011;5842;52.426;4.886;2022-11-15T10:24:46;13.93;;;7.47;;
11572;SDS011;5842;52.426;4.886;2022-11-15T10:27:14;12.27;;;7.50;;
11572;SDS011;5842;52.426;4.886;2022-11-15T10:29:43;11.40;;;7.67;;
11572;SDS011;5842;52.426;4.886;2022-11-15T10:32:12;13.20;;;7.20;;
11572;SDS011;5842;52.426;4.886;2022-11-15T10:34:41;10.60;;;6.83;;
11572;SDS011;5842;52.426;4.886;2022-11-15T10:37:08;8.80;;;7.13;;
11572;SDS011;5842;52.426;4.886;2022-11-15T10:39:35;12.40;;;7.17;;
11572;SDS011;5842;52.426;4.886;2022-11-15T10:42:17;9.47;;;6.37;;
11572;SDS011;5842;52.426;4.886;2022-11-15T10:44:52;10.17;;;6.60;;
11572;SDS011;5842;52.426;4.886;2022-11-15T10:47:20;9.73;;;6.83;;
11572;SDS011;5842;52.426;4.886;2022-11-15T10:49:53;9.57;;;6.43;;
11572;SDS011;5842;52.426;4.886;2022-11-15T10:52:25;10.77;;;6.50;;
11572;SDS011;5842;52.426;4.886;2022-11-15T10:54:55;10.07;;;7.00;;
11572;SDS011;5842;52.426;4.886;2022-11-15T10:57:26;10.13;;;6.00;;
11572;SDS011;5842;52.426;4.886;2022-11-15T10:59:57;10.43;;;6.17;;
11572;SDS011;5842;52.426;4.886;2022-11-15T11:02:28;12.07;;;6.00;;
11572;SDS011;5842;52.426;4.886;2022-11-15T11:05:00;8.73;;;6.13;;
11572;SDS011;5842;52.426;4.886;2022-11-15T11:07:29;7.87;;;5.60;;
11572;SDS011;5842;52.426;4.886;2022-11-15T11:10:01;9.90;;;6.13;;
11572;SDS011;5842;52.426;4.886;2022-11-15T11:12:33;8.53;;;5.40;;
11572;SDS011;5842;52.426;4.886;2022-11-15T11:15:02;11.93;;;5.40;;
11572;SDS011;5842;52.426;4.886;2022-11-15T11:17:42;14.40;;;6.13;;
11572;SDS011;5842;52.426;4.886;2022-11-15T11:20:20;9.23;;;5.30;;
11572;SDS011;5842;52.426;4.886;2022-11-15T11:22:59;7.50;;;5.23;;
11572;SDS011;5842;52.426;4.886;2022-11-15T11:25:33;9.87;;;5.20;;
11572;SDS011;5842;52.426;4.886;2022-11-15T11:28:10;8.90;;;5.10;;
11572;SDS011;5842;52.426;4.886;2022-11-15T11:30:51;8.50;;;5.07;;
11572;SDS011;5842;52.426;4.886;2022-11-15T11:33:28;9.03;;;5.00;;
11572;SDS011;5842;52.426;4.886;2022-11-15T11:36:05;7.83;;;4.67;;
11572;SDS011;5842;52.426;4.886;2022-11-15T11:38:54;11.03;;;5.40;;
11572;SDS011;5842;52.426;4.886;2022-11-15T11:41:36;9.17;;;5.20;;
11572;SDS011;5842;52.426;4.886;2022-11-15T11:44:15;8.90;;;5.20;;
11572;SDS011;5842;52.426;4.886;2022-11-15T11:46:53;6.97;;;4.50;;
11572;SDS011;5842;52.426;4.886;2022-11-15T11:49:25;10.10;;;4.60;;
11572;SDS011;5842;52.426;4.886;2022-11-15T11:52:00;8.47;;;4.10;;
11572;SDS011;5842;52.426;4.886;2022-11-15T11:54:31;7.73;;;4.43;;
11572;SDS011;5842;52.426;4.886;2022-11-15T11:57:05;6.33;;;4.00;;
11572;SDS011;5842;52.426;4.886;2022-11-15T11:59:43;6.00;;;3.70;;
11572;SDS011;5842;52.426;4.886;2022-11-15T12:02:16;8.00;;;3.90;;
11572;SDS011;5842;52.426;4.886;2022-11-15T12:04:48;6.07;;;3.80;;
11572;SDS011;5842;52.426;4.886;2022-11-15T12:07:19;6.63;;;3.63;;
11572;SDS011;5842;52.426;4.886;2022-11-15T12:09:51;6.70;;;3.17;;
11572;SDS011;5842;52.426;4.886;2022-11-15T12:12:25;6.70;;;3.43;;
11572;SDS011;5842;52.426;4.886;2022-11-15T12:15:01;7.27;;;3.37;;
11572;SDS011;5842;52.426;4.886;2022-11-15T12:17:30;6.23;;;3.20;;
11572;SDS011;5842;52.426;4.886;2022-11-15T12:19:58;6.47;;;2.90;;
11572;SDS011;5842;52.426;4.886;2022-11-15T12:22:32;5.10;;;2.87;;
11572;SDS011;5842;52.426;4.886;2022-11-15T12:25:06;8.63;;;3.20;;
11572;SDS011;5842;52.426;4.886;2022-11-15T12:27:41;5.80;;;2.80;;
11572;SDS011;5842;52.426;4.886;2022-11-15T12:30:15;7.33;;;2.83;;
11572;SDS011;5842;52.426;4.886;2022-11-15T12:32:49;5.37;;;2.57;;
11572;SDS011;5842;52.426;4.886;2022-11-15T12:35:23;9.30;;;2.73;;
11572;SDS011;5842;52.426;4.886;2022-11-15T12:37:54;6.83;;;2.40;;
11572;SDS011;5842;52.426;4.886;2022-11-15T12:46:11;4.33;;;2.13;;
11572;SDS011;5842;52.426;4.886;2022-11-15T12:48:47;6.70;;;2.50;;
11572;SDS011;5842;52.426;4.886;2022-11-15T12:51:17;7.43;;;2.57;;
11572;SDS011;5842;52.426;4.886;2022-11-15T12:53:46;6.20;;;1.93;;
11572;SDS011;5842;52.426;4.886;2022-11-15T12:56:18;6.30;;;2.23;;
11572;SDS011;5842;52.426;4.886;2022-11-15T12:58:48;4.27;;;2.03;;
11572;SDS011;5842;52.426;4.886;2022-11-15T13:04:27;7.00;;;2.10;;
11572;SDS011;5842;52.426;4.886;2022-11-15T13:06:57;5.80;;;2.00;;
11572;SDS011;5842;52.426;4.886;2022-11-15T13:15:33;5.53;;;2.00;;
11572;SDS011;5842;52.426;4.886;2022-11-15T13:18:33;5.80;;;2.47;;
11572;SDS011;5842;52.426;4.886;2022-11-15T13:21:16;4.00;;;1.93;;
11572;SDS011;5842;52.426;4.886;2022-11-15T13:24:03;4.53;;;1.80;;
11572;SDS011;5842;52.426;4.886;2022-11-15T13:26:30;3.83;;;2.07;;
11572;SDS011;5842;52.426;4.886;2022-11-15T13:28:57;4.50;;;1.80;;
11572;SDS011;5842;52.426;4.886;2022-11-15T13:31:27;6.07;;;2.17;;
11572;SDS011;5842;52.426;4.886;2022-11-15T13:33:59;5.87;;;2.07;;
11572;SDS011;5842;52.426;4.886;2022-11-15T13:36:29;3.77;;;2.00;;
11572;SDS011;5842;52.426;4.886;2022-11-15T13:39:00;4.10;;;1.80;;
11572;SDS011;5842;52.426;4.886;2022-11-15T13:41:29;5.57;;;2.37;;
11572;SDS011;5842;52.426;4.886;2022-11-15T13:43:59;4.50;;;1.80;;
11572;SDS011;5842;52.426;4.886;2022-11-15T13:46:27;6.10;;;1.80;;
11572;SDS011;5842;52.426;4.886;2022-11-15T13:48:58;4.17;;;1.50;;
11572;SDS011;5842;52.426;4.886;2022-11-15T13:51:30;3.67;;;1.80;;
11572;SDS011;5842;52.426;4.886;2022-11-15T13:54:02;5.77;;;2.00;;
11572;SDS011;5842;52.426;4.886;2022-11-15T13:56:42;5.17;;;1.77;;
11572;SDS011;5842;52.426;4.886;2022-11-15T13:59:14;4.27;;;1.80;;
11572;SDS011;5842;52.426;4.886;2022-11-15T14:01:45;6.40;;;1.97;;
11572;SDS011;5842;52.426;4.886;2022-11-15T14:04:17;4.83;;;1.63;;
11572;SDS011;5842;52.426;4.886;2022-11-15T14:06:46;4.47;;;1.80;;
11572;SDS011;5842;52.426;4.886;2022-11-15T14:09:24;6.63;;;1.93;;
11572;SDS011;5842;52.426;4.886;2022-11-15T14:12:00;4.33;;;1.80;;
11572;SDS011;5842;52.426;4.886;2022-11-15T14:14:28;6.67;;;1.73;;
11572;SDS011;5842;52.426;4.886;2022-11-15T14:16:56;5.60;;;2.20;;
11572;SDS011;5842;52.426;4.886;2022-11-15T14:19:39;4.57;;;1.73;;
11572;SDS011;5842;52.426;4.886;2022-11-15T14:25:07;7.70;;;1.80;;
11572;SDS011;5842;52.426;4.886;2022-11-15T14:27:42;5.33;;;1.87;;
11572;SDS011;5842;52.426;4.886;2022-11-15T14:30:14;6.27;;;2.10;;
11572;SDS011;5842;52.426;4.886;2022-11-15T14:32:43;5.87;;;2.27;;
11572;SDS011;5842;52.426;4.886;2022-11-15T14:35:14;5.50;;;2.00;;
11572;SDS011;5842;52.426;4.886;2022-11-15T14:37:42;6.80;;;2.37;;
11572;SDS011;5842;52.426;4.886;2022-11-15T14:40:12;3.73;;;2.00;;
11572;SDS011;5842;52.426;4.886;2022-11-15T14:42:40;5.90;;;2.23;;
11572;SDS011;5842;52.426;4.886;2022-11-15T14:45:10;5.27;;;2.20;;
11572;SDS011;5842;52.426;4.886;2022-11-15T14:47:40;5.93;;;2.27;;
11572;SDS011;5842;52.426;4.886;2022-11-15T14:50:10;5.53;;;2.30;;
11572;SDS011;5842;52.426;4.886;2022-11-15T14:52:40;5.20;;;2.10;;
11572;SDS011;5842;52.426;4.886;2022-11-15T14:55:14;5.67;;;2.33;;
11572;SDS011;5842;52.426;4.886;2022-11-15T14:57:48;6.47;;;2.20;;
11572;SDS011;5842;52.426;4.886;2022-11-15T15:00:16;3.23;;;1.73;;
11572;SDS011;5842;52.426;4.886;2022-11-15T15:02:44;4.13;;;2.07;;
11572;SDS011;5842;52.426;4.886;2022-11-15T15:05:13;4.50;;;1.97;;
11572;SDS011;5842;52.426;4.886;2022-11-15T15:07:43;6.13;;;2.10;;
11572;SDS011;5842;52.426;4.886;2022-11-15T15:10:11;5.63;;;2.20;;
11572;SDS011;5842;52.426;4.886;2022-11-15T15:12:39;3.93;;;2.00;;
11572;SDS011;5842;52.426;4.886;2022-11-15T15:15:09;4.87;;;2.43;;
11572;SDS011;5842;52.426;4.886;2022-11-15T15:17:39;7.13;;;2.57;;
11572;SDS011;5842;52.426;4.886;2022-11-15T15:20:06;7.73;;;2.40;;
11572;SDS011;5842;52.426;4.886;2022-11-15T15:22:34;5.37;;;2.20;;
11572;SDS011;5842;52.426;4.886;2022-11-15T15:25:03;7.23;;;2.37;;
11572;SDS011;5842;52.426;4.886;2022-11-15T15:27:45;5.33;;;2.40;;
11572;SDS011;5842;52.426;4.886;2022-11-15T15:30:12;4.70;;;2.33;;
11572;SDS011;5842;52.426;4.886;2022-11-15T15:32:39;4.73;;;1.93;;
11572;SDS011;5842;52.426;4.886;2022-11-15T15:35:07;5.47;;;2.40;;
11572;SDS011;5842;52.426;4.886;2022-11-15T15:37:37;7.10;;;2.60;;
11572;SDS011;5842;52.426;4.886;2022-11-15T15:40:10;6.77;;;2.43;;
11572;SDS011;5842;52.426;4.886;2022-11-15T15:42:39;3.43;;;1.93;;
11572;SDS011;5842;52.426;4.886;2022-11-15T15:45:07;7.70;;;2.23;;
11572;SDS011;5842;52.426;4.886;2022-11-15T15:47:35;2.90;;;2.10;;
11572;SDS011;5842;52.426;4.886;2022-11-15T15:50:02;5.87;;;2.50;;